Time;durP1;ratioP1;P1;durP2;ratioP2;P2;SDS_P1;SDS_P2;PMS_P1;PMS_P2;Temp;Humidity;BMP_temperature;BMP_pressure;BME280_temperature;BME280_humidity;BME280_pressure;Samples;Min_cycle;Max_cycle;Signal;HPM_P1;HPM_P2
2024/02/01 00:04:50;;;;;;;;;;;;;;;20.65;37.00;96745.09;10458364;28;2033;-61
2024/02/01 00:09:50;;;;;;;;;;;;;;;20.63;36.97;96727.97;10458531;28;2422;-61
2024/02/01 00:14:51;;;;;;;;;;;;;;;20.61;36.55;96715.03;10462542;28;2211;-60
2024/02/01 00:19:51;;;;;;;;;;;;;;;20.60;36.73;96734.53;10460268;28;2102;-61
2024/02/01 00:24:53;;;;;;;;;;;;;;;20.59;36.66;96738.19;10460254;28;1942;-61
2024/02/01 00:29:53;;;;;;;;;;;;;;;20.57;36.53;96739.47;10457433;28;2059;-59
2024/02/01 00:34:53;;;;;;;;;;;;;;;20.56;36.50;96733.44;10459562;28;2098;-60
2024/02/01 00:39:54;;;;;;;;;;;;;;;20.55;36.55;96734.47;10462197;28;2152;-61
2024/02/01 00:44:54;;;;;;;;;;;;;;;20.53;36.63;96743.66;10462151;28;2176;-61
2024/02/01 00:49:54;;;;;;;;;;;;;;;20.51;36.39;96745.75;10459979;28;2217;-61
2024/02/01 00:54:54;;;;;;;;;;;;;;;20.50;36.43;96746.81;10460976;28;2005;-60
2024/02/01 00:59:55;;;;;;;;;;;;;;;20.47;36.50;96739.38;10458210;28;2383;-60
2024/02/01 01:04:55;;;;;;;;;;;;;;;20.47;36.31;96740.19;10456885;28;2035;-61
2024/02/01 01:09:56;;;;;;;;;;;;;;;20.45;36.33;96744.91;10456665;28;2225;-60
2024/02/01 01:14:56;;;;;;;;;;;;;;;20.42;36.26;96726.19;10482694;28;2051;-61
2024/02/01 01:20:02;;;;;;;;;;;;;;;20.42;36.23;96726.19;10466693;28;2306;-61
2024/02/01 01:25:03;;;;;;;;;;;;;;;20.39;36.16;96716.94;10465893;28;2056;-60
2024/02/01 01:30:03;;;;;;;;;;;;;;;20.39;36.13;96718.78;10465372;28;2104;-59
2024/02/01 01:35:03;;;;;;;;;;;;;;;20.38;36.33;96714.56;10446795;28;2144;-60
2024/02/01 01:40:04;;;;;;;;;;;;;;;20.37;36.05;96724.28;10464605;28;2053;-59
2024/02/01 01:45:05;;;;;;;;;;;;;;;20.33;36.30;96712.66;10464028;28;2523;-60
2024/02/01 01:50:05;;;;;;;;;;;;;;;20.33;35.93;96711.88;10463211;28;2182;-58
2024/02/01 01:55:06;;;;;;;;;;;;;;;20.32;35.91;96720.81;10464461;28;2011;-61
2024/02/01 02:00:08;;;;;;;;;;;;;;;20.30;35.80;96715.00;10448203;28;1963;-60
2024/02/01 02:05:09;;;;;;;;;;;;;;;20.30;36.15;96712.38;10446691;28;2029;-60
2024/02/01 02:10:14;;;;;;;;;;;;;;;20.27;35.82;96718.94;10464408;28;2035;-60
2024/02/01 02:15:16;;;;;;;;;;;;;;;20.26;35.70;96717.31;10463508;28;2113;-60
2024/02/01 02:20:19;;;;;;;;;;;;;;;20.24;35.92;96709.69;10480586;28;2056;-60
2024/02/01 02:25:20;;;;;;;;;;;;;;;20.23;35.74;96712.56;10479596;28;2183;-60
2024/02/01 02:30:21;;;;;;;;;;;;;;;20.21;35.65;96714.66;10465592;28;2333;-60
2024/02/01 02:35:21;;;;;;;;;;;;;;;20.21;35.64;96720.72;10463460;28;2058;-60
2024/02/01 02:40:21;;;;;;;;;;;;;;;20.19;35.92;96725.44;10461614;28;2165;-58
2024/02/01 02:45:21;;;;;;;;;;;;;;;20.19;35.77;96727.25;10462438;28;2097;-61
2024/02/01 02:50:22;;;;;;;;;;;;;;;20.17;35.73;96714.31;10464400;28;2128;-60
2024/02/01 02:55:24;;;;;;;;;;;;;;;20.15;35.53;96723.53;10475694;28;2129;-61
2024/02/01 03:00:25;;;;;;;;;;;;;;;20.14;35.92;96724.53;10461241;28;2239;-60
2024/02/01 03:05:25;;;;;;;;;;;;;;;20.14;35.55;96719.28;10462993;28;2085;-60
2024/02/01 03:10:25;;;;;;;;;;;;;;;20.10;35.51;96716.34;10461574;28;1945;-60
2024/02/01 03:15:29;;;;;;;;;;;;;;;20.10;35.54;96712.91;10461230;28;2284;-61
2024/02/01 03:20:31;;;;;;;;;;;;;;;20.08;35.67;96715.00;10472971;28;2357;-60
2024/02/01 03:25:32;;;;;;;;;;;;;;;20.06;35.67;96723.16;10467638;28;2227;-60
2024/02/01 03:30:33;;;;;;;;;;;;;;;20.06;35.48;96717.88;10463912;28;2097;-60
2024/02/01 03:35:34;;;;;;;;;;;;;;;20.04;35.62;96709.44;10472875;28;2097;-59
2024/02/01 03:40:38;;;;;;;;;;;;;;;20.04;35.56;96708.66;10459827;28;2135;-59
2024/02/01 03:45:48;;;;;;;;;;;;;;;20.02;35.48;96710.72;10443235;28;1986;-59
2024/02/01 03:50:51;;;;;;;;;;;;;;;20.01;35.43;96709.16;10460620;28;2132;-59
2024/02/01 03:55:51;;;;;;;;;;;;;;;20.00;35.68;96707.53;10463640;28;2114;-59
2024/02/01 04:00:51;;;;;;;;;;;;;;;19.99;35.51;96705.97;10464004;28;2480;-59
2024/02/01 04:05:53;;;;;;;;;;;;;;;19.98;35.60;96704.38;10459378;28;2027;-59
2024/02/01 04:10:54;;;;;;;;;;;;;;;19.96;35.48;96719.59;10476193;28;2259;-60
2024/02/01 04:15:54;;;;;;;;;;;;;;;19.95;35.42;96725.91;10442336;28;2249;-59
2024/02/01 04:20:54;;;;;;;;;;;;;;;19.93;35.28;96714.81;10460933;28;2034;-59
2024/02/01 04:25:56;;;;;;;;;;;;;;;19.90;35.56;96705.59;10459722;28;2168;-61
2024/02/01 04:30:57;;;;;;;;;;;;;;;19.90;35.35;96716.13;10459576;28;1986;-61
2024/02/01 04:35:57;;;;;;;;;;;;;;;19.89;35.32;96714.53;10460178;28;1975;-61
2024/02/01 04:40:57;;;;;;;;;;;;;;;19.88;35.55;96725.31;10461440;28;2483;-60
2024/02/01 04:45:57;;;;;;;;;;;;;;;19.88;35.26;96725.31;10442790;28;2165;-61
2024/02/01 04:50:58;;;;;;;;;;;;;;;19.86;35.41;96727.38;10469807;28;2163;-61
2024/02/01 04:55:59;;;;;;;;;;;;;;;19.85;35.36;96728.41;10468477;28;2049;-62
2024/02/01 05:00:59;;;;;;;;;;;;;;;19.84;35.38;96726.84;10469533;28;2113;-61
2024/02/01 05:06:00;;;;;;;;;;;;;;;19.82;35.30;96721.84;10469010;28;2092;-61
2024/02/01 05:11:00;;;;;;;;;;;;;;;19.84;35.10;96726.84;10469804;28;2092;-61
2024/02/01 05:16:02;;;;;;;;;;;;;;;19.85;35.24;96716.06;10469958;28;2065;-61
2024/02/01 05:21:02;;;;;;;;;;;;;;;19.93;34.89;96702.47;10452666;28;2045;-61
2024/02/01 05:26:02;;;;;;;;;;;;;;;20.01;34.69;96691.50;10473924;28;2837;-61
2024/02/01 05:31:03;;;;;;;;;;;;;;;20.10;34.58;96697.13;10469489;28;2014;-61
2024/02/01 05:36:06;;;;;;;;;;;;;;;20.17;34.33;96687.97;10452683;28;2127;-61
2024/02/01 05:41:14;;;;;;;;;;;;;;;20.25;34.30;96690.22;10466565;28;2315;-60
2024/02/01 05:46:14;;;;;;;;;;;;;;;20.32;34.12;96689.22;10467818;28;2061;-61
2024/02/01 05:51:14;;;;;;;;;;;;;;;20.36;33.97;96693.72;10448739;28;2125;-61
2024/02/01 05:56:14;;;;;;;;;;;;;;;20.42;34.14;96705.13;10465463;28;2053;-61
2024/02/01 06:01:17;;;;;;;;;;;;;;;20.47;33.86;96705.94;10450029;28;2038;-60
2024/02/01 06:06:17;;;;;;;;;;;;;;;20.48;33.98;96697.03;10463840;28;2630;-61
2024/02/01 06:11:18;;;;;;;;;;;;;;;20.53;33.80;96686.50;10466049;28;2069;-61
2024/02/01 06:16:18;;;;;;;;;;;;;;;20.55;33.71;96694.97;10466327;28;2384;-60
2024/02/01 06:21:19;;;;;;;;;;;;;;;20.60;33.23;96696.84;10466143;28;2343;-62
2024/02/01 06:26:20;;;;;;;;;;;;;;;20.61;33.49;96703.72;10463707;28;2321;-62
2024/02/01 06:31:20;;;;;;;;;;;;;;;20.64;33.41;96693.47;10466983;28;1998;-61
2024/02/01 06:36:20;;;;;;;;;;;;;;;20.68;33.78;96693.75;10464942;28;2214;-61
2024/02/01 06:57:22;;;;;;;;;;;;;;;20.78;33.40;96652.47;10466050;28;2696;-60
2024/02/01 07:02:35;;;;;;;;;;;;;;;20.83;33.21;96657.78;10466104;28;2064;-61
2024/02/01 07:07:42;;;;;;;;;;;;;;;20.85;33.08;96662.81;10467227;28;2108;-58
2024/02/01 07:12:53;;;;;;;;;;;;;;;20.86;32.87;96659.91;10466421;28;2112;-60
2024/02/01 07:18:02;;;;;;;;;;;;;;;20.90;33.36;96655.72;10499750;27;2108;-60
2024/02/01 07:23:33;;;;;;;;;;;;;;;20.91;32.98;96661.78;10464598;28;2175;-60
2024/02/01 08:00:27;;;;;;;;;;;;;;;21.04;32.65;96729.94;10475945;28;2063;-60
2024/02/01 08:11:06;;;;;;;;;;;;;;;21.09;32.57;96748.41;10370436;28;2124;-60
2024/02/01 08:16:07;;;;;;;;;;;;;;;21.07;32.03;96761.03;10442173;28;2025;-60
2024/02/01 08:21:14;;;;;;;;;;;;;;;21.10;32.05;96767.66;10460680;28;2249;-60
2024/02/01 08:26:14;;;;;;;;;;;;;;;21.09;32.10;96769.50;10459661;28;2160;-60
2024/02/01 08:31:17;;;;;;;;;;;;;;;21.11;32.28;96770.03;10460674;28;2093;-60
2024/02/01 08:36:20;;;;;;;;;;;;;;;21.13;31.84;96777.69;10441280;28;2739;-60
2024/02/01 08:41:21;;;;;;;;;;;;;;;21.14;32.45;96779.28;10460696;28;1937;-60
2024/02/01 08:46:22;;;;;;;;;;;;;;;21.15;31.93;96771.13;10456834;28;2184;-60
2024/02/01 08:51:23;;;;;;;;;;;;;;;21.16;32.41;96758.72;10461231;28;2045;-60
2024/02/01 08:56:36;;;;;;;;;;;;;;;21.15;31.85;96750.03;10454551;28;2109;-58
2024/02/01 09:01:36;;;;;;;;;;;;;;;21.18;31.82;96746.91;10459423;28;2053;-59
2024/02/01 09:06:36;;;;;;;;;;;;;;;21.17;32.46;96742.66;10459474;28;2037;-60
2024/02/01 09:11:37;;;;;;;;;;;;;;;21.19;32.22;96737.91;10458752;28;2120;-59
2024/02/01 09:16:37;;;;;;;;;;;;;;;21.20;32.04;96746.63;10463777;28;2536;-58
2024/02/01 09:21:39;;;;;;;;;;;;;;;21.21;31.83;96746.38;10460598;28;2111;-59
2024/02/01 09:26:41;;;;;;;;;;;;;;;21.22;31.87;96752.44;10459801;28;2180;-59
2024/02/01 09:31:42;;;;;;;;;;;;;;;21.23;31.62;96760.09;10440582;28;2307;-58
2024/02/01 09:36:42;;;;;;;;;;;;;;;21.22;32.10;96774.34;10463771;28;2233;-59
2024/02/01 09:41:43;;;;;;;;;;;;;;;21.22;32.01;96761.16;10463855;28;2258;-58
2024/02/01 09:46:43;;;;;;;;;;;;;;;21.23;31.84;96767.19;10480149;28;2273;-59
2024/02/01 09:51:46;;;;;;;;;;;;;;;21.26;31.44;96769.34;10479825;28;2269;-59
2024/02/01 09:56:47;;;;;;;;;;;;;;;21.26;31.22;96779.91;10465031;28;2420;-59
2024/02/01 10:01:49;;;;;;;;;;;;;;;21.25;31.46;96773.03;10474877;28;2166;-59
2024/02/01 10:06:49;;;;;;;;;;;;;;;21.27;32.03;96776.22;10477786;28;2153;-59
2024/02/01 10:11:50;;;;;;;;;;;;;;;21.27;31.63;96766.44;10463118;28;2141;-59
2024/02/01 10:16:50;;;;;;;;;;;;;;;21.29;31.43;96769.63;10467936;28;2058;-59
2024/02/01 10:21:50;;;;;;;;;;;;;;;21.30;31.59;96758.06;10463852;28;2102;-59
2024/02/01 10:26:52;;;;;;;;;;;;;;;21.32;31.46;96770.97;10460282;28;2223;-58
2024/02/01 10:31:53;;;;;;;;;;;;;;;21.33;31.71;96765.44;10461886;28;2115;-59
2024/02/01 10:36:53;;;;;;;;;;;;;;;21.34;31.71;96768.88;10444247;28;2107;-59
2024/02/01 10:41:54;;;;;;;;;;;;;;;21.36;31.46;96764.13;10477296;28;2562;-58
2024/02/01 10:46:54;;;;;;;;;;;;;;;21.33;31.92;96756.75;10476597;28;2132;-59
2024/02/01 10:51:55;;;;;;;;;;;;;;;21.34;31.54;96753.06;10463071;28;2108;-59
2024/02/01 10:57:04;;;;;;;;;;;;;;;21.35;31.28;96752.03;10475004;28;2026;-59
2024/02/01 11:02:06;;;;;;;;;;;;;;;21.34;32.00;96753.06;10458793;28;2000;-59
2024/02/01 11:07:06;;;;;;;;;;;;;;;21.40;31.19;96742.28;10460059;28;2249;-58
2024/02/01 11:12:10;;;;;;;;;;;;;;;21.36;31.77;96745.69;10462728;28;2448;-58
2024/02/01 11:17:17;;;;;;;;;;;;;;;21.35;31.74;96744.09;10468263;28;2061;-58
2024/02/01 11:22:20;;;;;;;;;;;;;;;21.38;31.06;96740.94;10462342;28;2097;-58
2024/02/01 11:27:24;;;;;;;;;;;;;;;21.36;31.54;96730.66;10463238;28;2160;-59
2024/02/01 11:32:28;;;;;;;;;;;;;;;21.37;31.46;96736.72;10442072;28;2488;-58
2024/02/01 11:37:29;;;;;;;;;;;;;;;21.38;31.33;96733.03;10443079;28;2031;-59
2024/02/01 11:42:29;;;;;;;;;;;;;;;21.41;31.79;96735.94;10462153;28;2258;-59
2024/02/01 11:47:31;;;;;;;;;;;;;;;21.41;31.24;96738.59;10443144;28;2336;-59
2024/02/01 11:52:44;;;;;;;;;;;;;;;21.39;31.17;96734.63;10473492;28;2279;-59
2024/02/01 11:57:47;;;;;;;;;;;;;;;21.41;30.95;96737.81;10441093;28;2273;-59
2024/02/01 12:02:47;;;;;;;;;;;;;;;21.41;31.42;96735.94;10458785;28;2065;-59
2024/02/01 12:07:48;;;;;;;;;;;;;;;21.41;31.35;96735.94;10461892;28;2108;-59
2024/02/01 12:12:48;;;;;;;;;;;;;;;21.37;31.34;96723.53;10461232;28;2335;-59
2024/02/01 12:17:50;;;;;;;;;;;;;;;21.38;31.67;96723.28;10478403;28;2125;-59
2024/02/01 12:22:56;;;;;;;;;;;;;;;21.35;32.01;96723.00;10460818;28;2089;-58
2024/02/01 12:27:59;;;;;;;;;;;;;;;21.37;31.32;96732.22;10458446;28;2216;-59
2024/02/01 12:32:59;;;;;;;;;;;;;;;21.34;31.84;96724.84;10473338;28;2055;-59
2024/02/01 12:38:01;;;;;;;;;;;;;;;21.30;31.98;96718.50;10460691;28;2172;-59
2024/02/01 12:43:04;;;;;;;;;;;;;;;21.33;31.25;96725.88;10459062;28;2247;-59
2024/02/01 12:48:05;;;;;;;;;;;;;;;21.30;31.54;96722.97;10460204;28;2124;-58
2024/02/01 12:53:05;;;;;;;;;;;;;;;21.28;31.83;96730.34;10460560;28;2192;-58
2024/02/01 12:58:06;;;;;;;;;;;;;;;21.28;31.83;96730.34;10491108;28;2389;-59
2024/02/01 13:03:06;;;;;;;;;;;;;;;21.24;32.02;96732.69;10500569;28;2099;-59
2024/02/01 13:08:06;;;;;;;;;;;;;;;21.24;32.01;96732.69;10503454;28;1969;-58
2024/02/01 13:13:06;;;;;;;;;;;;;;;21.22;32.36;96739.25;10507727;28;2040;-59
2024/02/01 13:18:11;;;;;;;;;;;;;;;21.16;32.84;96733.16;10512521;28;2079;-59
2024/02/01 13:23:12;;;;;;;;;;;;;;;21.11;33.21;96741.03;10506257;28;2130;-58
2024/02/01 13:28:12;;;;;;;;;;;;;;;21.11;32.77;96735.75;10508754;28;2170;-59
2024/02/01 13:33:13;;;;;;;;;;;;;;;21.06;33.49;96736.50;10476954;28;2075;-59
2024/02/01 13:38:13;;;;;;;;;;;;;;;21.02;33.65;96740.69;10507248;28;2059;-59
2024/02/01 13:43:13;;;;;;;;;;;;;;;21.00;33.65;96747.22;10507400;28;2391;-59
2024/02/01 13:48:14;;;;;;;;;;;;;;;20.97;33.87;96738.00;10507103;28;2130;-59
2024/02/01 13:53:17;;;;;;;;;;;;;;;20.93;34.07;96739.56;10506794;28;2151;-59
2024/02/01 13:58:17;;;;;;;;;;;;;;;20.89;34.02;96727.94;10507712;28;2000;-59
2024/02/01 14:03:17;;;;;;;;;;;;;;;20.87;33.96;96716.03;10508527;28;2036;-60
2024/02/01 14:08:17;;;;;;;;;;;;;;;20.83;34.24;96725.50;10505079;28;2250;-59
2024/02/01 14:13:18;;;;;;;;;;;;;;;20.81;33.83;96736.28;10507180;28;2067;-59
2024/02/01 14:18:18;;;;;;;;;;;;;;;20.78;34.22;96742.06;10490181;28;2039;-59
2024/02/01 14:23:18;;;;;;;;;;;;;;;20.75;34.37;96752.31;10486143;28;2059;-59
2024/02/01 14:28:19;;;;;;;;;;;;;;;20.71;34.55;96759.91;10504872;28;2645;-59
2024/02/01 14:33:20;;;;;;;;;;;;;;;20.69;34.68;96762.00;10502765;28;1988;-59
2024/02/01 14:38:20;;;;;;;;;;;;;;;20.67;34.66;96772.00;10483925;28;2028;-59
2024/02/01 14:43:21;;;;;;;;;;;;;;;20.69;34.58;96779.66;10505976;28;2138;-59
2024/02/01 14:48:21;;;;;;;;;;;;;;;20.71;34.46;96780.97;10504308;28;1960;-57
2024/02/01 14:53:22;;;;;;;;;;;;;;;20.71;34.61;96782.84;10503290;28;2090;-58
2024/02/01 14:58:22;;;;;;;;;;;;;;;20.72;34.31;96779.94;10503266;28;2000;-58
2024/02/01 15:03:22;;;;;;;;;;;;;;;20.75;34.08;96782.06;10486329;28;2008;-59
2024/02/01 15:08:23;;;;;;;;;;;;;;;20.76;34.05;96783.69;10504680;28;2676;-60
2024/02/01 15:13:25;;;;;;;;;;;;;;;20.79;33.98;96780.53;10500761;28;2108;-58
2024/02/01 15:18:26;;;;;;;;;;;;;;;20.82;33.85;96777.41;10507728;28;2071;-63
2024/02/01 15:23:26;;;;;;;;;;;;;;;20.86;33.66;96775.84;10501995;28;2192;-60
2024/02/01 15:28:27;;;;;;;;;;;;;;;20.90;33.38;96781.41;10504721;28;2189;-60
2024/02/01 15:33:27;;;;;;;;;;;;;;;20.91;33.23;96791.72;10501667;28;2266;-60
2024/02/01 15:38:29;;;;;;;;;;;;;;;20.96;33.12;96788.31;10500580;28;2111;-60
2024/02/01 15:43:32;;;;;;;;;;;;;;;21.00;33.17;96787.56;10503544;28;2028;-60
2024/02/01 15:48:32;;;;;;;;;;;;;;;21.03;32.32;96786.31;10516597;27;2046;-59
2024/02/01 15:53:33;;;;;;;;;;;;;;;21.03;32.96;96797.66;10500324;28;2682;-60
2024/02/01 15:58:33;;;;;;;;;;;;;;;21.10;32.60;96801.94;10516279;27;2134;-59
2024/02/01 16:03:34;;;;;;;;;;;;;;;21.10;32.71;96797.47;10500505;28;2112;-60
2024/02/01 16:08:44;;;;;;;;;;;;;;;21.10;32.65;96804.56;10502306;28;1978;-60
2024/02/01 16:13:46;;;;;;;;;;;;;;;21.13;32.86;96811.97;10504532;28;2377;-60
2024/02/01 16:18:47;;;;;;;;;;;;;;;21.16;32.45;96806.19;10503759;28;2024;-60
2024/02/01 16:23:47;;;;;;;;;;;;;;;21.17;32.62;96810.41;10502365;28;2232;-58
2024/02/01 16:28:47;;;;;;;;;;;;;;;21.18;32.28;96809.38;10503550;28;2261;-60
2024/02/01 16:34:14;;;;;;;;;;;;;;;21.18;32.76;96820.72;10503697;28;2747;-61
2024/02/01 16:39:40;;;;;;;;;;;;;;;21.19;32.83;96826.78;10467630;28;2129;-60
2024/02/01 16:44:40;;;;;;;;;;;;;;;21.19;32.48;96830.22;10504770;28;2040;-59
2024/02/01 16:49:42;;;;;;;;;;;;;;;21.24;32.12;96838.19;10513153;28;2024;-58
2024/02/01 16:54:43;;;;;;;;;;;;;;;21.22;32.71;96836.81;10513202;28;2044;-60
2024/02/01 16:59:43;;;;;;;;;;;;;;;21.25;32.04;96846.84;10512853;28;2087;-59
2024/02/01 17:04:43;;;;;;;;;;;;;;;21.27;32.79;96853.47;10511110;28;2036;-60
2024/02/01 17:09:44;;;;;;;;;;;;;;;21.25;32.88;96857.41;10491339;28;2032;-60
2024/02/01 17:14:44;;;;;;;;;;;;;;;21.27;32.90;96866.66;10467955;28;2256;-60
2024/02/01 17:19:46;;;;;;;;;;;;;;;21.28;32.98;96859.56;10509959;28;2181;-60
2024/02/01 17:24:47;;;;;;;;;;;;;;;21.29;33.85;96866.44;10508924;28;2718;-58
2024/02/01 17:29:47;;;;;;;;;;;;;;;21.35;33.53;96868.84;10509715;28;2182;-59
2024/02/01 17:34:47;;;;;;;;;;;;;;;21.41;33.86;96880.25;10511701;28;2301;-59
2024/02/01 17:39:48;;;;;;;;;;;;;;;21.36;34.29;96881.00;10490701;28;2293;-58
2024/02/01 17:44:48;;;;;;;;;;;;;;;21.52;33.00;96890.63;10523221;28;2160;-60
2024/02/01 17:49:49;;;;;;;;;;;;;;;21.51;32.87;96893.50;10508892;28;1952;-59
2024/02/01 17:54:50;;;;;;;;;;;;;;;21.58;33.15;96891.44;10504398;28;2290;-59
2024/02/01 17:59:50;;;;;;;;;;;;;;;21.61;32.91;96899.66;10506023;28;2101;-56
2024/02/01 18:04:50;;;;;;;;;;;;;;;21.60;33.28;96900.69;10485932;28;2050;-58
2024/02/01 18:09:52;;;;;;;;;;;;;;;21.64;33.11;96903.63;10506336;28;2720;-60
2024/02/01 18:14:53;;;;;;;;;;;;;;;21.56;33.76;96919.91;10507612;28;2106;-59
2024/02/01 18:19:53;;;;;;;;;;;;;;;21.63;33.62;96910.78;10508363;28;2064;-60
2024/02/01 18:24:54;;;;;;;;;;;;;;;21.59;33.89;96930.00;10505099;28;2119;-59
2024/02/01 18:29:58;;;;;;;;;;;;;;;21.63;33.58;96928.44;10504456;28;2421;-59
2024/02/01 18:34:58;;;;;;;;;;;;;;;21.67;33.28;96938.25;10502335;28;2312;-59
2024/02/01 18:40:07;;;;;;;;;;;;;;;21.76;32.97;96944.63;10497433;28;2032;-59
2024/02/01 18:45:28;;;;;;;;;;;;;;;21.66;33.54;96944.56;10505044;28;2127;-59
2024/02/01 18:50:33;;;;;;;;;;;;;;;21.76;33.39;96954.41;10501151;28;2139;-61
2024/02/01 18:55:39;;;;;;;;;;;;;;;21.79;33.01;96953.91;10505735;28;1994;-61
2024/02/01 19:00:40;;;;;;;;;;;;;;;21.83;32.67;96949.72;10507226;28;3099;-60
2024/02/01 19:05:40;;;;;;;;;;;;;;;21.83;32.39;96949.72;10505585;28;2078;-61
2024/02/01 19:10:42;;;;;;;;;;;;;;;21.85;31.42;96951.06;10503817;28;1996;-60
2024/02/01 19:15:47;;;;;;;;;;;;;;;21.79;32.75;96957.34;10504100;28;2165;-61
2024/02/01 19:20:47;;;;;;;;;;;;;;;21.84;32.83;96961.91;10484729;28;2029;-60
2024/02/01 19:25:48;;;;;;;;;;;;;;;21.83;33.11;96955.00;10500370;28;1984;-61
2024/02/01 19:30:49;;;;;;;;;;;;;;;21.86;33.37;96951.88;10503714;28;2237;-60
2024/02/01 19:35:49;;;;;;;;;;;;;;;21.85;33.50;96952.91;10502009;28;2523;-60
2024/02/01 19:40:50;;;;;;;;;;;;;;;21.83;33.24;96945.25;10517106;28;2774;-59
2024/02/01 19:45:50;;;;;;;;;;;;;;;21.87;33.15;96950.81;10514769;28;2134;-60
2024/02/01 19:50:52;;;;;;;;;;;;;;;21.89;33.28;96956.63;10484978;28;1969;-60
2024/02/01 19:55:52;;;;;;;;;;;;;;;21.93;32.83;96956.94;10499646;28;2028;-60
2024/02/01 20:00:52;;;;;;;;;;;;;;;21.91;33.34;96962.47;10503335;28;2136;-60
2024/02/01 20:05:53;;;;;;;;;;;;;;;21.92;32.65;96958.78;10505322;28;2172;-60
2024/02/01 20:10:53;;;;;;;;;;;;;;;21.92;31.94;96958.00;10502128;28;2052;-62
2024/02/01 20:15:53;;;;;;;;;;;;;;;21.88;33.44;96957.69;10503381;28;2134;-60
2024/02/01 20:20:54;;;;;;;;;;;;;;;21.85;33.90;96976.66;10495855;28;2687;-60
2024/02/01 20:25:54;;;;;;;;;;;;;;;21.79;33.44;96973.19;10495326;28;2146;-60
2024/02/01 20:30:55;;;;;;;;;;;;;;;21.71;33.76;96983.38;10498268;28;2245;-61
2024/02/01 20:35:55;;;;;;;;;;;;;;;21.66;33.67;96967.50;10497664;28;2265;-61
2024/02/01 20:40:56;;;;;;;;;;;;;;;21.54;34.40;96966.88;10497000;28;2141;-61
2024/02/01 20:45:56;;;;;;;;;;;;;;;21.52;34.52;96961.84;10490400;28;1948;-59
2024/02/01 20:50:56;;;;;;;;;;;;;;;21.39;34.96;96966.75;10495884;28;2103;-61
2024/02/01 20:55:57;;;;;;;;;;;;;;;21.30;35.51;96965.59;10477797;28;2111;-59
2024/02/01 21:00:58;;;;;;;;;;;;;;;21.32;35.11;96963.50;10496995;28;2147;-63
2024/02/01 21:05:58;;;;;;;;;;;;;;;21.23;35.46;96963.16;10479290;28;2339;-59
2024/02/01 21:10:59;;;;;;;;;;;;;;;21.15;35.78;96966.22;10513594;28;2597;-59
2024/02/01 21:15:59;;;;;;;;;;;;;;;21.09;35.68;96967.22;10499611;28;2091;-60
2024/02/01 21:21:01;;;;;;;;;;;;;;;21.05;35.65;96966.94;10511986;28;2166;-60
2024/02/01 21:26:15;;;;;;;;;;;;;;;20.97;35.98;96967.34;10498180;28;2225;-59
2024/02/01 21:31:24;;;;;;;;;;;;;;;20.94;35.65;96973.09;10501402;28;2242;-59
2024/02/01 21:36:25;;;;;;;;;;;;;;;20.90;35.99;96982.53;10505900;28;2163;-62
2024/02/01 21:41:31;;;;;;;;;;;;;;;20.87;36.14;96979.59;10508536;28;1912;-62
2024/02/01 21:46:37;;;;;;;;;;;;;;;20.83;36.13;96983.75;10508570;28;1956;-62
2024/02/01 21:51:37;;;;;;;;;;;;;;;20.80;36.18;96998.22;10505354;28;2516;-62
2024/02/01 21:56:39;;;;;;;;;;;;;;;20.77;36.19;97001.34;10522006;27;2078;-61
2024/02/01 22:01:39;;;;;;;;;;;;;;;20.73;36.23;97008.13;10508668;28;2334;-61
2024/02/01 22:06:39;;;;;;;;;;;;;;;20.72;36.24;97008.38;10503522;28;1992;-61
2024/02/01 22:11:40;;;;;;;;;;;;;;;20.68;36.17;97015.19;10506326;28;2153;-61
2024/02/01 22:16:40;;;;;;;;;;;;;;;20.65;36.29;97015.69;10514336;28;2072;-61
2024/02/01 22:21:43;;;;;;;;;;;;;;;20.62;36.14;97016.16;10503727;28;2190;-61
2024/02/01 22:26:43;;;;;;;;;;;;;;;20.60;36.12;97016.41;10503141;28;2082;-61
2024/02/01 22:31:44;;;;;;;;;;;;;;;20.57;36.18;97014.25;10505529;28;2016;-61
2024/02/01 22:36:44;;;;;;;;;;;;;;;20.55;36.31;97007.63;10491242;28;2591;-61
2024/02/01 22:41:44;;;;;;;;;;;;;;;20.53;36.10;97014.97;10504887;28;2138;-61
2024/02/01 22:46:45;;;;;;;;;;;;;;;20.49;36.26;97019.94;10519516;27;2094;-61
2024/02/01 22:51:45;;;;;;;;;;;;;;;20.47;36.45;97013.31;10509988;28;2126;-61
2024/02/01 22:56:45;;;;;;;;;;;;;;;20.45;36.42;97008.28;10506325;28;2274;-63
2024/02/01 23:01:46;;;;;;;;;;;;;;;20.42;36.19;97006.16;10505650;28;2075;-63
2024/02/01 23:06:47;;;;;;;;;;;;;;;20.40;36.27;97000.34;10506404;28;2063;-62
2024/02/01 23:11:47;;;;;;;;;;;;;;;20.38;36.48;96997.13;10499193;28;2060;-61
2024/02/01 23:16:47;;;;;;;;;;;;;;;20.36;36.32;96995.78;10507368;28;2536;-61
2024/02/01 23:21:49;;;;;;;;;;;;;;;20.35;36.48;97002.88;10484966;28;2056;-61
2024/02/01 23:26:50;;;;;;;;;;;;;;;20.32;36.17;96989.41;10503898;28;2094;-61
2024/02/01 23:31:52;;;;;;;;;;;;;;;20.31;36.21;96995.69;10485537;28;2191;-61
2024/02/01 23:36:53;;;;;;;;;;;;;;;20.28;36.08;96992.50;10486416;28;2035;-63
2024/02/01 23:41:53;;;;;;;;;;;;;;;20.27;36.36;97005.91;10501244;28;1884;-62
2024/02/01 23:46:53;;;;;;;;;;;;;;;20.24;36.16;97004.56;10504218;28;2055;-61
2024/02/01 23:51:54;;;;;;;;;;;;;;;20.23;36.06;96999.53;10486478;28;2152;-61
2024/02/01 23:56:54;;;;;;;;;;;;;;;20.22;36.25;97006.63;10503441;28;2315;-61
